createdAt,value
2023-01-07T00:01:50.283Z,100107.41
2023-01-07T00:04:17.147Z,100117.56
2023-01-07T00:06:47.456Z,100104.59
2023-01-07T00:09:18.648Z,100110.13
2023-01-07T00:11:45.913Z,100108.06
2023-01-07T00:14:14.481Z,100111.75
2023-01-07T00:16:41.642Z,100111.31
2023-01-07T00:19:13.072Z,100102.59
2023-01-07T00:21:40.164Z,100101.41
2023-01-07T00:24:07.980Z,100110.06
2023-01-07T00:26:37.005Z,100117.25
2023-01-07T00:29:05.452Z,100113.16
2023-01-07T00:31:37.903Z,100104.06
2023-01-07T00:34:23.761Z,100113.03
2023-01-07T00:36:50.640Z,100114.84
2023-01-07T00:39:20.735Z,100116.25
2023-01-07T00:42:07.542Z,100115.34
2023-01-07T00:44:35.455Z,100122.34
2023-01-07T00:47:02.399Z,100117.28
2023-01-07T00:49:48.483Z,100109.28
2023-01-07T00:52:15.321Z,100103.66
2023-01-07T00:54:42.173Z,100110.47
2023-01-07T00:57:13.285Z,100112.72
2023-01-07T00:59:40.067Z,100109.44
2023-01-07T01:02:07.010Z,100109.13
2023-01-07T01:04:34.059Z,100116.84
2023-01-07T01:07:00.946Z,100103.69
2023-01-07T01:09:28.040Z,100115.56
2023-01-07T01:11:54.966Z,100114.94
2023-01-07T01:14:21.931Z,100106.66
2023-01-07T01:16:48.777Z,100114.03
2023-01-07T01:19:34.436Z,100117.25
2023-01-07T01:22:01.320Z,100110.81
2023-01-07T01:24:28.208Z,100111.03
2023-01-07T01:26:55.119Z,100111.97
2023-01-07T01:29:22.051Z,100115.81
2023-01-07T01:31:48.943Z,100115.19
2023-01-07T01:34:15.867Z,100116.34
2023-01-07T01:36:42.678Z,100115.31
2023-01-07T01:39:09.460Z,100096.13
2023-01-07T01:41:36.684Z,100110.06
2023-01-07T01:44:46.361Z,100100.84
2023-01-07T01:47:21.053Z,100094.69
2023-01-07T01:50:18.433Z,100098.47
2023-01-07T01:53:09.630Z,100100.25
2023-01-07T01:55:39.255Z,100097.22
2023-01-07T01:58:22.078Z,100095.09
2023-01-07T02:03:27.508Z,100087.00
2023-01-07T02:05:54.528Z,100087.25
2023-01-07T02:08:23.440Z,100081.31
2023-01-07T02:11:17.661Z,100077.22
2023-01-07T02:14:10.184Z,100074.50
2023-01-07T02:16:50.480Z,100089.25
2023-01-07T02:19:43.247Z,100078.19
2023-01-07T02:22:16.147Z,100079.00
2023-01-07T02:25:20.110Z,100078.09
2023-01-07T02:27:46.968Z,100079.50
2023-01-07T02:30:45.648Z,100078.91
2023-01-07T02:33:28.285Z,100076.19
2023-01-07T02:36:04.138Z,100083.41
2023-01-07T02:38:51.208Z,100076.75
2023-01-07T02:41:32.868Z,100073.56
2023-01-07T02:44:04.196Z,100075.38
2023-01-07T02:46:40.221Z,100073.47
2023-01-07T02:49:14.355Z,100070.78
2023-01-07T02:51:45.237Z,100061.00
2023-01-07T02:54:21.593Z,100063.88
2023-01-07T02:57:41.879Z,100066.84
2023-01-07T03:00:26.863Z,100058.41
2023-01-07T03:03:18.682Z,100062.31
2023-01-07T03:05:51.495Z,100066.06
2023-01-07T03:08:49.411Z,100066.06
2023-01-07T03:11:17.655Z,100052.91
2023-01-07T03:13:50.359Z,100059.63
2023-01-07T03:16:34.783Z,100060.91
2023-01-07T03:19:10.023Z,100054.19
2023-01-07T03:21:38.237Z,100060.47
2023-01-07T03:24:07.943Z,100062.38
2023-01-07T03:26:43.095Z,100055.78
2023-01-07T03:29:13.639Z,100059.09
2023-01-07T03:31:46.927Z,100055.09
2023-01-07T03:34:17.126Z,100060.22
2023-01-07T03:36:53.248Z,100054.84
2023-01-07T03:39:24.639Z,100049.16
2023-01-07T03:42:10.352Z,100056.03
2023-01-07T03:44:37.745Z,100054.94
2023-01-07T03:47:23.885Z,100049.88
2023-01-07T03:49:50.710Z,100053.06
2023-01-07T03:52:17.672Z,100057.50
2023-01-07T03:54:44.555Z,100059.09
2023-01-07T03:57:11.328Z,100050.84
2023-01-07T03:59:38.157Z,100047.06
2023-01-07T04:02:05.134Z,100052.06
2023-01-07T04:04:32.580Z,100054.84
2023-01-07T04:06:59.532Z,100051.25
2023-01-07T04:09:26.559Z,100047.94
2023-01-07T04:11:53.693Z,100051.88
2023-01-07T04:14:38.974Z,100040.97
2023-01-07T04:17:06.028Z,100049.00
2023-01-07T04:19:33.460Z,100049.66
2023-01-07T04:22:00.406Z,100046.53
2023-01-07T04:24:27.359Z,100044.81
2023-01-07T04:26:54.155Z,100051.41
2023-01-07T04:29:21.173Z,100051.47
2023-01-07T04:31:48.016Z,100049.94
2023-01-07T04:34:14.827Z,100047.13
2023-01-07T04:36:41.737Z,100056.28
2023-01-07T04:39:08.605Z,100042.16
2023-01-07T04:41:35.405Z,100045.13
2023-01-07T04:44:02.315Z,100045.53
2023-01-07T04:46:29.215Z,100043.16
2023-01-07T04:48:56.344Z,100046.97
2023-01-07T04:51:23.200Z,100047.13
2023-01-07T04:53:49.998Z,100051.84
2023-01-07T04:56:17.066Z,100052.03
2023-01-07T04:58:44.137Z,100045.63
2023-01-07T05:01:11.617Z,100044.25
2023-01-07T05:03:38.797Z,100050.66
2023-01-07T05:06:05.855Z,100044.41
2023-01-07T05:08:32.928Z,100044.56
2023-01-07T05:11:00.186Z,100051.97
2023-01-07T05:13:27.089Z,100038.72
2023-01-07T05:15:53.960Z,100055.00
2023-01-07T05:18:20.816Z,100054.03
2023-01-07T05:20:50.629Z,100050.22
2023-01-07T05:23:17.416Z,100057.00
2023-01-07T05:25:44.581Z,100046.56
2023-01-07T05:28:12.385Z,100050.59
2023-01-07T05:30:39.694Z,100053.47
2023-01-07T05:33:07.737Z,100060.09
2023-01-07T05:35:35.988Z,100061.22
2023-01-07T05:38:02.844Z,100057.31
2023-01-07T05:40:29.821Z,100064.88
2023-01-07T05:42:56.982Z,100056.50
2023-01-07T05:45:23.843Z,100057.19
2023-01-07T05:47:50.780Z,100051.00
2023-01-07T05:50:17.797Z,100052.78
2023-01-07T05:52:44.607Z,100051.34
2023-01-07T05:55:12.476Z,100053.16
2023-01-07T05:57:39.386Z,100053.25
2023-01-07T06:00:06.937Z,100050.75
2023-01-07T06:02:33.871Z,100045.78
2023-01-07T06:05:00.818Z,100061.28
2023-01-07T06:07:30.399Z,100053.78
2023-01-07T06:09:57.227Z,100059.59
2023-01-07T06:12:24.198Z,100056.22
2023-01-07T06:14:51.018Z,100048.81
2023-01-07T06:17:18.037Z,100060.81
2023-01-07T06:19:44.953Z,100054.00
2023-01-07T06:22:11.988Z,100065.75
2023-01-07T06:24:40.277Z,100059.00
2023-01-07T06:27:07.215Z,100073.50
2023-01-07T06:29:34.055Z,100066.59
2023-01-07T06:32:00.918Z,100062.81
2023-01-07T06:34:27.775Z,100069.00
2023-01-07T06:36:54.526Z,100071.25
2023-01-07T06:39:21.323Z,100066.25
2023-01-07T06:41:48.188Z,100066.28
2023-01-07T06:44:15.036Z,100071.50
2023-01-07T06:46:41.919Z,100068.47
2023-01-07T06:49:09.199Z,100076.16
2023-01-07T06:51:36.071Z,100074.03
2023-01-07T06:54:03.387Z,100080.66
2023-01-07T06:56:30.308Z,100078.94
2023-01-07T06:58:57.105Z,100079.31
2023-01-07T07:01:24.185Z,100078.22
2023-01-07T07:03:51.109Z,100082.13
2023-01-07T07:06:17.912Z,100080.47
2023-01-07T07:09:03.018Z,100079.03
2023-01-07T07:11:30.026Z,100073.78
2023-01-07T07:13:57.038Z,100069.94
2023-01-07T07:16:24.361Z,100071.75
2023-01-07T07:18:51.426Z,100076.97
2023-01-07T07:21:18.216Z,100069.16
2023-01-07T07:23:45.465Z,100077.00
2023-01-07T07:26:12.338Z,100074.34
2023-01-07T07:28:39.598Z,100074.94
2023-01-07T07:31:06.541Z,100076.09
2023-01-07T07:33:33.381Z,100079.91
2023-01-07T07:36:00.140Z,100078.41
2023-01-07T07:38:27.017Z,100076.56
2023-01-07T07:40:53.844Z,100072.53
2023-01-07T07:43:20.779Z,100081.81
2023-01-07T07:45:47.673Z,100072.22
2023-01-07T07:48:15.850Z,100072.59
2023-01-07T07:50:42.754Z,100074.56
2023-01-07T07:53:10.677Z,100074.59
2023-01-07T07:55:39.054Z,100064.16
2023-01-07T07:58:06.603Z,100067.91
2023-01-07T08:00:33.657Z,100068.94
2023-01-07T08:03:01.506Z,100060.47
2023-01-07T08:05:29.060Z,100064.44
2023-01-07T08:07:56.419Z,100074.41
2023-01-07T08:10:23.246Z,100074.28
2023-01-07T08:12:50.847Z,100069.94
2023-01-07T08:15:17.873Z,100075.28
2023-01-07T08:17:44.899Z,100071.81
2023-01-07T08:20:12.335Z,100079.94
2023-01-07T08:22:39.564Z,100072.53
2023-01-07T08:25:06.859Z,100069.03
2023-01-07T08:27:33.709Z,100077.03
2023-01-07T08:30:00.682Z,100080.56
2023-01-07T08:32:27.609Z,100070.81
2023-01-07T08:34:54.519Z,100073.53
2023-01-07T08:37:21.462Z,100067.25
2023-01-07T08:39:48.277Z,100070.91
2023-01-07T08:42:15.068Z,100063.03
2023-01-07T08:44:42.018Z,100062.03
2023-01-07T08:47:08.881Z,100060.47
2023-01-07T08:49:35.657Z,100070.06
2023-01-07T08:52:02.593Z,100061.34
2023-01-07T08:54:29.377Z,100061.34
2023-01-07T08:56:56.248Z,100066.59
2023-01-07T08:59:23.178Z,100065.69
2023-01-07T09:01:50.216Z,100055.16
2023-01-07T09:04:17.200Z,100055.22
2023-01-07T09:06:44.077Z,100051.69
2023-01-07T09:09:12.076Z,100047.34
2023-01-07T09:11:38.925Z,100047.38
2023-01-07T09:14:05.998Z,100044.72
2023-01-07T09:16:32.901Z,100033.38
2023-01-07T09:18:59.885Z,100038.59
2023-01-07T09:21:26.881Z,100037.75
2023-01-07T09:23:53.670Z,100026.38
2023-01-07T09:26:20.796Z,100025.50
2023-01-07T09:28:47.707Z,100022.00
2023-01-07T09:31:14.548Z,100022.03
2023-01-07T09:33:41.578Z,100026.41
2023-01-07T09:36:08.836Z,100018.53
2023-01-07T09:38:35.679Z,100017.63
2023-01-07T09:41:02.778Z,100012.38
2023-01-07T09:44:01.183Z,100010.59
2023-01-07T09:46:30.992Z,100005.41
2023-01-07T09:49:02.991Z,100006.22
2023-01-07T09:51:40.195Z,99990.56
2023-01-07T09:54:29.093Z,99980.97
2023-01-07T09:56:56.075Z,99987.97
2023-01-07T09:59:22.902Z,99984.41
2023-01-07T10:02:18.719Z,99971.28
2023-01-07T10:05:33.457Z,99967.78
2023-01-07T10:08:31.374Z,99958.25
2023-01-07T10:11:08.134Z,99959.91
2023-01-07T10:14:05.835Z,99950.41
2023-01-07T10:16:48.816Z,99949.53
2023-01-07T10:19:23.807Z,99941.56
2023-01-07T10:22:03.139Z,99943.31
2023-01-07T10:24:39.375Z,99931.03
2023-01-07T10:27:15.449Z,99931.91
2023-01-07T10:29:46.754Z,99921.50
2023-01-07T10:32:18.248Z,99914.38
2023-01-07T10:34:51.981Z,99911.78
2023-01-07T10:37:33.884Z,99911.78
2023-01-07T10:40:07.919Z,99895.19
2023-01-07T10:43:16.664Z,99895.28
2023-01-07T10:46:04.539Z,99887.44
2023-01-07T10:48:43.332Z,99876.09
2023-01-07T10:51:19.155Z,99890.88
2023-01-07T10:54:11.094Z,99877.91
2023-01-07T10:56:40.873Z,99870.00
2023-01-07T10:59:15.536Z,99865.56
2023-01-07T11:02:03.489Z,99855.16
2023-01-07T11:04:30.507Z,99848.91
2023-01-07T11:07:04.545Z,99841.16
2023-01-07T11:09:35.625Z,99841.25
2023-01-07T11:12:16.288Z,99831.69
2023-01-07T11:14:43.858Z,99825.53
2023-01-07T11:17:37.351Z,99823.78
2023-01-07T11:20:05.690Z,99810.69
2023-01-07T11:22:51.279Z,99813.22
2023-01-07T11:25:29.056Z,99804.53
2023-01-07T11:28:16.469Z,99808.13
2023-01-07T11:30:44.016Z,99803.78
2023-01-07T11:33:22.267Z,99802.84
2023-01-07T11:35:54.875Z,99792.38
2023-01-07T11:38:31.424Z,99795.03
2023-01-07T11:40:59.921Z,99785.38
2023-01-07T11:43:35.147Z,99781.97
2023-01-07T11:46:20.225Z,99781.13
2023-01-07T11:49:01.441Z,99762.78
2023-01-07T11:51:43.038Z,99768.91
2023-01-07T11:54:21.891Z,99762.81
2023-01-07T11:56:49.704Z,99758.44
2023-01-07T11:59:26.569Z,99756.75
2023-01-07T12:01:55.981Z,99750.63
2023-01-07T12:04:36.445Z,99751.41
2023-01-07T12:07:15.711Z,99751.44
2023-01-07T12:09:45.533Z,99747.13
2023-01-07T12:12:37.304Z,99741.94
2023-01-07T12:15:24.067Z,99741.94
2023-01-07T12:18:03.401Z,99741.94
2023-01-07T12:20:38.391Z,99737.59
2023-01-07T12:23:20.275Z,99745.44
2023-01-07T12:25:52.866Z,99732.34
2023-01-07T12:28:50.519Z,99738.50
2023-01-07T12:31:17.170Z,99734.09
2023-01-07T12:33:50.069Z,99729.75
2023-01-07T12:36:49.675Z,99724.50
2023-01-07T12:39:33.051Z,99724.53
2023-01-07T12:42:25.547Z,99720.16
2023-01-07T12:45:01.282Z,99728.00
2023-01-07T12:47:36.665Z,99721.03
2023-01-07T12:50:18.571Z,99711.44
2023-01-07T12:52:50.837Z,99702.72
2023-01-07T12:55:22.832Z,99703.59
2023-01-07T12:58:32.999Z,99707.09
2023-01-07T13:01:06.095Z,99699.22
2023-01-07T13:03:47.385Z,99700.97
2023-01-07T13:06:35.198Z,99700.97
2023-01-07T13:09:09.277Z,99692.25
2023-01-07T13:12:41.638Z,99693.13
2023-01-07T13:15:26.861Z,99688.75
2023-01-07T13:17:59.321Z,99686.19
2023-01-07T13:20:39.431Z,99684.44
2023-01-07T13:23:18.945Z,99675.72
2023-01-07T13:26:21.292Z,99682.69
2023-01-07T13:29:04.493Z,99683.56
2023-01-07T13:31:45.670Z,99680.94
2023-01-07T13:34:24.291Z,99685.31
2023-01-07T13:37:01.071Z,99679.16
2023-01-07T13:39:52.192Z,99680.88
2023-01-07T13:42:33.994Z,99686.09
2023-01-07T13:45:24.307Z,99670.44
2023-01-07T13:47:54.780Z,99681.75
2023-01-07T13:50:44.400Z,99680.88
2023-01-07T13:53:17.316Z,99676.50
2023-01-07T13:55:46.405Z,99672.13
2023-01-07T13:58:31.418Z,99668.66
2023-01-07T14:01:16.161Z,99670.41
2023-01-07T14:03:54.218Z,99666.00
2023-01-07T14:06:20.949Z,99667.72
2023-01-07T14:09:13.813Z,99667.72
2023-01-07T14:12:21.188Z,99665.94
2023-01-07T14:15:20.069Z,99665.84
2023-01-07T14:17:55.987Z,99659.84
2023-01-07T14:20:52.800Z,99666.69
2023-01-07T14:23:32.723Z,99660.59
2023-01-07T14:26:28.738Z,99664.09
2023-01-07T14:29:07.859Z,99663.28
2023-01-07T14:31:35.066Z,99658.03
2023-01-07T14:34:05.571Z,99658.81
2023-01-07T14:37:08.635Z,99655.28
2023-01-07T14:39:37.077Z,99666.56
2023-01-07T14:42:42.094Z,99660.44
2023-01-07T14:45:36.690Z,99661.28
2023-01-07T14:48:34.079Z,99656.03
2023-01-07T14:51:28.498Z,99659.50
2023-01-07T14:54:24.688Z,99657.69
2023-01-07T14:57:22.838Z,99659.44
2023-01-07T15:00:02.115Z,99662.78
2023-01-07T15:02:55.330Z,99665.31
2023-01-07T15:05:43.208Z,99659.25
2023-01-07T15:08:32.102Z,99654.75
2023-01-07T15:11:19.820Z,99658.97
2023-01-07T15:14:16.419Z,99655.41
2023-01-07T15:16:47.148Z,99655.38
2023-01-07T15:19:14.097Z,99659.63
2023-01-07T15:22:22.677Z,99671.59
2023-01-07T15:25:12.948Z,99658.34
2023-01-07T15:28:05.606Z,99663.34
2023-01-07T15:30:57.176Z,99656.94
2023-01-07T15:33:45.580Z,99663.94
2023-01-07T15:36:15.865Z,99666.44
2023-01-07T15:38:50.331Z,99668.81
2023-01-07T15:41:37.639Z,99662.72
2023-01-07T15:44:07.721Z,99680.06
2023-01-07T15:46:40.548Z,99675.53
2023-01-07T15:49:10.441Z,99673.00
2023-01-07T15:51:40.257Z,99666.72
2023-01-07T15:54:32.037Z,99670.22
2023-01-07T15:57:07.901Z,99672.66
2023-01-07T15:59:39.129Z,99670.69
2023-01-07T16:02:24.603Z,99670.56
2023-01-07T16:04:57.659Z,99671.28
2023-01-07T16:07:29.017Z,99672.13
2023-01-07T16:09:57.430Z,99668.31
2023-01-07T16:12:34.325Z,99673.47
2023-01-07T16:15:04.685Z,99666.44
2023-01-07T16:17:31.976Z,99672.25
2023-01-07T16:20:19.797Z,99682.53
2023-01-07T16:22:46.748Z,99676.34
2023-01-07T16:25:22.260Z,99670.25
2023-01-07T16:27:50.990Z,99665.81
2023-01-07T16:30:18.552Z,99664.88
2023-01-07T16:32:46.158Z,99673.78
2023-01-07T16:35:38.067Z,99668.22
2023-01-07T16:38:05.769Z,99662.06
2023-01-07T16:40:37.782Z,99675.72
2023-01-07T16:43:25.444Z,99672.84
2023-01-07T16:46:38.816Z,99665.00
2023-01-07T16:49:11.698Z,99672.50
2023-01-07T16:51:45.357Z,99664.31
2023-01-07T16:54:40.322Z,99652.94
2023-01-07T16:57:30.196Z,99657.22
2023-01-07T16:59:58.909Z,99664.78
2023-01-07T17:02:38.186Z,99664.53
2023-01-07T17:05:18.933Z,99666.69
2023-01-07T17:07:57.518Z,99661.88
2023-01-07T17:10:31.448Z,99667.34
2023-01-07T17:13:04.746Z,99662.81
2023-01-07T17:15:31.586Z,99659.75
2023-01-07T17:18:13.294Z,99658.56
2023-01-07T17:20:48.939Z,99659.69
2023-01-07T17:23:27.764Z,99663.06
2023-01-07T17:26:12.663Z,99659.44
2023-01-07T17:28:49.180Z,99651.22
2023-01-07T17:31:15.974Z,99655.59
2023-01-07T17:33:43.213Z,99651.47
2023-01-07T17:36:18.636Z,99666.63
2023-01-07T17:38:45.543Z,99662.09
2023-01-07T17:41:37.141Z,99672.09
2023-01-07T17:44:04.961Z,99667.41
2023-01-07T17:46:31.995Z,99668.25
2023-01-07T17:49:01.073Z,99672.16
2023-01-07T17:51:28.503Z,99662.91
2023-01-07T17:53:59.273Z,99664.16
2023-01-07T17:56:26.323Z,99660.50
2023-01-07T17:58:55.815Z,99674.19
2023-01-07T18:01:24.011Z,99668.03
2023-01-07T18:03:52.062Z,99668.72
2023-01-07T18:06:25.570Z,99666.44
2023-01-07T18:08:53.101Z,99667.19
2023-01-07T18:11:42.196Z,99664.38
2023-01-07T18:14:13.218Z,99671.31
2023-01-07T18:16:40.739Z,99667.75
2023-01-07T18:19:08.593Z,99676.75
2023-01-07T18:21:35.419Z,99678.41
2023-01-07T18:24:02.303Z,99675.00
2023-01-07T18:26:29.157Z,99681.41
2023-01-07T18:28:55.987Z,99675.31
2023-01-07T18:31:22.837Z,99676.88
2023-01-07T18:33:50.120Z,99680.16
2023-01-07T18:36:16.963Z,99686.47
2023-01-07T18:38:44.389Z,99682.66
2023-01-07T18:41:11.322Z,99686.75
2023-01-07T18:43:38.252Z,99677.16
2023-01-07T18:46:08.604Z,99677.09
2023-01-07T18:48:37.256Z,99680.56
2023-01-07T18:51:10.431Z,99679.97
2023-01-07T18:53:37.757Z,99681.72
2023-01-07T18:56:08.611Z,99668.00
2023-01-07T18:58:35.398Z,99679.91
2023-01-07T19:01:04.300Z,99682.16
2023-01-07T19:03:31.498Z,99681.06
2023-01-07T19:06:00.087Z,99673.06
2023-01-07T19:08:27.702Z,99678.41
2023-01-07T19:10:54.655Z,99675.00
2023-01-07T19:13:22.401Z,99660.84
2023-01-07T19:15:49.197Z,99665.56
2023-01-07T19:18:16.049Z,99654.66
2023-01-07T19:20:42.966Z,99671.84
2023-01-07T19:23:09.813Z,99660.78
2023-01-07T19:25:36.819Z,99659.94
2023-01-07T19:28:22.459Z,99669.19
2023-01-07T19:30:49.325Z,99670.09
2023-01-07T19:33:16.145Z,99668.59
2023-01-07T19:35:42.984Z,99664.47
2023-01-07T19:38:09.995Z,99657.38
2023-01-07T19:40:36.972Z,99652.13
2023-01-07T19:43:03.731Z,99663.16
2023-01-07T19:45:30.646Z,99659.78
2023-01-07T19:47:57.788Z,99664.25
2023-01-07T19:50:24.596Z,99664.63
2023-01-07T19:52:51.524Z,99662.47
2023-01-07T19:55:18.399Z,99660.59
2023-01-07T19:57:45.196Z,99656.38
2023-01-07T20:00:12.437Z,99660.41
2023-01-07T20:02:39.296Z,99659.38
2023-01-07T20:05:06.538Z,99664.72
2023-01-07T20:07:35.117Z,99666.00
2023-01-07T20:10:02.061Z,99665.38
2023-01-07T20:12:28.806Z,99668.13
2023-01-07T20:14:55.693Z,99669.72
2023-01-07T20:17:22.604Z,99661.38
2023-01-07T20:19:49.395Z,99662.88
2023-01-07T20:22:16.343Z,99658.31
2023-01-07T20:24:43.413Z,99660.75
2023-01-07T20:27:10.277Z,99658.94
2023-01-07T20:29:39.019Z,99669.91
2023-01-07T20:32:08.318Z,99663.81
2023-01-07T20:34:35.535Z,99660.25
2023-01-07T20:37:04.564Z,99653.41
2023-01-07T20:39:31.476Z,99661.25
2023-01-07T20:41:58.326Z,99661.47
2023-01-07T20:44:25.138Z,99652.03
2023-01-07T20:46:52.089Z,99655.66
2023-01-07T20:49:19.053Z,99653.69
2023-01-07T20:51:46.380Z,99657.91
2023-01-07T20:54:13.767Z,99659.44
2023-01-07T20:56:59.385Z,99668.97
2023-01-07T20:59:26.373Z,99663.75
2023-01-07T21:01:53.478Z,99656.00
2023-01-07T21:04:20.524Z,99657.31
2023-01-07T21:06:47.378Z,99647.63
2023-01-07T21:09:15.370Z,99648.25
2023-01-07T21:11:43.383Z,99643.28
2023-01-07T21:14:10.193Z,99641.19
2023-01-07T21:16:37.495Z,99640.63
2023-01-07T21:19:04.386Z,99644.34
2023-01-07T21:21:31.379Z,99638.31
2023-01-07T21:23:58.976Z,99639.25
2023-01-07T21:26:26.164Z,99642.09
2023-01-07T21:28:56.118Z,99644.00
2023-01-07T21:31:42.246Z,99645.78
2023-01-07T21:34:10.556Z,99651.84
2023-01-07T21:36:37.536Z,99641.44
2023-01-07T21:39:04.517Z,99647.75
2023-01-07T21:41:31.399Z,99646.16
2023-01-07T21:43:58.283Z,99649.75
2023-01-07T21:46:25.236Z,99648.63
2023-01-07T21:48:52.096Z,99653.41
2023-01-07T21:51:24.606Z,99647.38
2023-01-07T21:53:52.551Z,99657.47
2023-01-07T21:56:19.885Z,99643.41
2023-01-07T21:58:46.883Z,99639.34
2023-01-07T22:01:14.321Z,99637.16
2023-01-07T22:03:45.246Z,99637.06
2023-01-07T22:06:25.775Z,99643.84
2023-01-07T22:09:14.634Z,99642.09
2023-01-07T22:11:42.150Z,99648.88
2023-01-07T22:14:16.989Z,99644.66
2023-01-07T22:16:45.492Z,99642.84
2023-01-07T22:19:13.696Z,99639.75
2023-01-07T22:21:40.653Z,99646.03
2023-01-07T22:24:26.235Z,99643.34
2023-01-07T22:26:53.867Z,99635.75
2023-01-07T22:29:39.382Z,99638.22
2023-01-07T22:32:06.195Z,99635.78
2023-01-07T22:34:33.099Z,99645.75
2023-01-07T22:37:05.836Z,99633.75
2023-01-07T22:39:43.545Z,99634.44
2023-01-07T22:42:33.405Z,99637.66
2023-01-07T22:45:06.904Z,99639.53
2023-01-07T22:47:40.935Z,99628.38
2023-01-07T22:50:09.498Z,99630.94
2023-01-07T22:52:36.838Z,99629.94
2023-01-07T22:55:22.193Z,99622.19
2023-01-07T22:57:49.311Z,99621.03
2023-01-07T23:00:38.095Z,99621.66
2023-01-07T23:03:05.197Z,99605.03
2023-01-07T23:05:32.168Z,99610.94
2023-01-07T23:07:59.042Z,99608.94
2023-01-07T23:10:25.903Z,99617.16
2023-01-07T23:12:52.745Z,99613.53
2023-01-07T23:15:19.666Z,99615.41
2023-01-07T23:17:49.541Z,99590.63
2023-01-07T23:20:16.423Z,99601.16
2023-01-07T23:22:43.383Z,99603.06
2023-01-07T23:25:10.170Z,99594.84
2023-01-07T23:27:39.274Z,99597.56
2023-01-07T23:30:06.930Z,99605.56
2023-01-07T23:32:33.843Z,99596.91
2023-01-07T23:35:00.927Z,99590.81
2023-01-07T23:37:27.883Z,99592.13
2023-01-07T23:39:54.691Z,99596.63
2023-01-07T23:42:21.661Z,99595.69
2023-01-07T23:44:48.566Z,99600.41
2023-01-07T23:47:15.746Z,99594.44
2023-01-07T23:49:42.517Z,99597.81
2023-01-07T23:52:09.408Z,99602.19
2023-01-07T23:54:36.219Z,99603.06
2023-01-07T23:57:03.032Z,99597.16
2023-01-07T23:59:29.867Z,99599.03
